createdAt,value
2023-05-21T00:01:44.033Z,63.38
2023-05-21T00:04:12.089Z,63.81
2023-05-21T00:06:39.167Z,64.05
2023-05-21T00:09:06.616Z,64.44
2023-05-21T00:11:33.809Z,64.64
2023-05-21T00:14:01.120Z,64.95
2023-05-21T00:16:28.224Z,65.39
2023-05-21T00:18:55.438Z,65.73
2023-05-21T00:21:23.335Z,65.95
2023-05-21T00:23:50.556Z,65.96
2023-05-21T00:26:17.467Z,66.08
2023-05-21T00:28:45.536Z,66.37
2023-05-21T00:31:12.581Z,66.44
2023-05-21T00:33:39.558Z,66.39
2023-05-21T00:36:06.849Z,66.46
2023-05-21T00:38:33.911Z,66.49
2023-05-21T00:41:02.580Z,66.32
2023-05-21T00:43:29.571Z,66.31
2023-05-21T00:45:56.781Z,66.20
2023-05-21T00:48:23.853Z,66.23
2023-05-21T00:50:51.046Z,66.24
2023-05-21T00:53:19.620Z,66.06
2023-05-21T00:55:46.798Z,65.96
2023-05-21T00:58:13.822Z,65.98
2023-05-21T01:00:40.864Z,66.04
2023-05-21T01:03:08.368Z,65.95
2023-05-21T01:05:35.893Z,65.99
2023-05-21T01:08:03.960Z,65.98
2023-05-21T01:10:31.040Z,65.89
2023-05-21T01:12:58.432Z,65.62
2023-05-21T01:15:25.667Z,65.54
2023-05-21T01:17:53.314Z,65.59
2023-05-21T01:20:20.462Z,65.74
2023-05-21T01:22:57.078Z,65.55
2023-05-21T01:25:25.038Z,65.95
2023-05-21T01:27:52.297Z,66.15
2023-05-21T01:30:20.235Z,66.25
2023-05-21T01:33:04.157Z,66.22
2023-05-21T01:36:03.178Z,66.40
2023-05-21T01:38:38.070Z,66.31
2023-05-21T01:41:08.309Z,66.47
2023-05-21T01:43:38.635Z,66.53
2023-05-21T01:46:05.783Z,66.80
2023-05-21T01:48:33.058Z,67.12
2023-05-21T01:51:02.856Z,67.44
2023-05-21T01:53:29.823Z,67.60
2023-05-21T01:55:56.960Z,67.63
2023-05-21T01:58:24.432Z,67.73
2023-05-21T02:00:51.999Z,68.13
2023-05-21T02:03:19.770Z,68.44
2023-05-21T02:05:47.495Z,68.45
2023-05-21T02:08:15.618Z,68.72
2023-05-21T02:10:42.622Z,69.05
2023-05-21T02:13:09.818Z,69.29
2023-05-21T02:15:37.366Z,69.33
2023-05-21T02:18:04.705Z,69.46
2023-05-21T02:20:32.032Z,69.62
2023-05-21T02:22:58.956Z,69.68
2023-05-21T02:25:26.078Z,69.87
2023-05-21T02:27:54.227Z,69.92
2023-05-21T02:30:21.192Z,70.13
2023-05-21T02:32:50.075Z,70.13
2023-05-21T02:35:17.215Z,70.36
2023-05-21T02:37:44.484Z,70.40
2023-05-21T02:40:12.045Z,70.56
2023-05-21T02:42:40.452Z,70.77
2023-05-21T02:45:09.307Z,71.00
2023-05-21T02:47:36.630Z,71.30
2023-05-21T02:50:03.976Z,71.46
2023-05-21T02:52:31.571Z,71.50
2023-05-21T02:54:58.598Z,71.52
2023-05-21T02:57:25.855Z,71.35
2023-05-21T02:59:52.870Z,71.41
2023-05-21T03:02:19.882Z,71.26
2023-05-21T03:04:47.052Z,71.30
2023-05-21T03:07:15.264Z,71.33
2023-05-21T03:09:44.300Z,71.51
2023-05-21T03:12:11.487Z,71.61
2023-05-21T03:14:38.563Z,71.52
2023-05-21T03:17:08.513Z,71.62
2023-05-21T03:19:36.561Z,71.80
2023-05-21T03:22:04.734Z,71.82
2023-05-21T03:24:33.739Z,72.09
2023-05-21T03:27:01.603Z,72.32
2023-05-21T03:29:28.706Z,72.40
2023-05-21T03:31:56.376Z,72.41
2023-05-21T03:34:24.435Z,72.51
2023-05-21T03:36:52.340Z,72.52
2023-05-21T03:39:19.613Z,72.52
2023-05-21T03:41:46.651Z,72.50
2023-05-21T03:44:20.054Z,72.43
2023-05-21T03:46:51.893Z,72.35
2023-05-21T03:49:31.009Z,72.24
2023-05-21T03:51:58.209Z,72.09
2023-05-21T03:54:25.811Z,71.98
2023-05-21T03:56:55.605Z,71.87
2023-05-21T03:59:23.253Z,71.76
2023-05-21T04:01:51.541Z,71.58
2023-05-21T04:04:18.735Z,71.49
2023-05-21T04:06:45.757Z,71.41
2023-05-21T04:09:13.072Z,71.53
2023-05-21T04:11:40.044Z,71.59
2023-05-21T04:14:07.236Z,71.45
2023-05-21T04:16:35.589Z,71.36
2023-05-21T04:19:04.273Z,71.22
2023-05-21T04:21:32.394Z,71.14
2023-05-21T04:24:00.971Z,70.99
2023-05-21T04:26:46.306Z,70.77
2023-05-21T04:29:13.362Z,70.57
2023-05-21T04:31:40.330Z,70.79
2023-05-21T04:34:07.456Z,70.94
2023-05-21T04:36:34.617Z,70.93
2023-05-21T04:39:01.934Z,71.02
2023-05-21T04:41:29.077Z,71.19
2023-05-21T04:43:56.130Z,71.10
2023-05-21T04:46:25.710Z,70.95
2023-05-21T04:48:55.506Z,70.68
2023-05-21T04:51:24.955Z,70.42
2023-05-21T04:53:52.122Z,70.26
2023-05-21T04:56:19.296Z,70.03
2023-05-21T04:58:48.228Z,69.99
2023-05-21T05:01:15.846Z,69.71
2023-05-21T05:03:42.994Z,69.38
2023-05-21T05:06:17.714Z,69.40
2023-05-21T05:08:46.407Z,69.04
2023-05-21T05:11:14.705Z,68.70
2023-05-21T05:13:42.208Z,68.37
2023-05-21T05:16:09.578Z,68.37
2023-05-21T05:18:36.796Z,68.14
2023-05-21T05:21:03.916Z,67.88
2023-05-21T05:23:32.164Z,67.23
2023-05-21T05:25:59.354Z,66.11
2023-05-21T05:28:29.942Z,66.24
2023-05-21T05:30:57.084Z,65.88
2023-05-21T05:33:24.989Z,64.56
2023-05-21T05:35:52.033Z,64.07
2023-05-21T05:38:19.132Z,63.87
2023-05-21T05:40:50.136Z,63.45
2023-05-21T05:43:17.075Z,63.29
2023-05-21T05:45:44.340Z,63.06
2023-05-21T05:48:14.448Z,62.59
2023-05-21T05:50:41.858Z,62.06
2023-05-21T05:53:09.437Z,61.74
2023-05-21T05:55:36.708Z,61.31
2023-05-21T05:58:04.164Z,60.71
2023-05-21T06:00:32.711Z,60.28
2023-05-21T06:02:59.929Z,59.69
2023-05-21T06:05:27.232Z,59.70
2023-05-21T06:07:54.262Z,60.01
2023-05-21T06:10:21.266Z,59.92
2023-05-21T06:12:50.889Z,59.30
2023-05-21T06:15:20.259Z,58.70
2023-05-21T06:17:47.605Z,58.39
2023-05-21T06:20:15.131Z,58.37
2023-05-21T06:22:42.376Z,58.82
2023-05-21T06:25:11.008Z,58.79
2023-05-21T06:27:38.854Z,58.94
2023-05-21T06:30:09.341Z,59.08
2023-05-21T06:32:37.938Z,58.82
2023-05-21T06:35:05.878Z,58.64
2023-05-21T06:37:32.903Z,58.50
2023-05-21T06:40:01.915Z,57.78
2023-05-21T06:42:29.560Z,56.88
2023-05-21T06:45:16.550Z,56.40
2023-05-21T06:47:44.999Z,56.46
2023-05-21T06:50:12.085Z,56.81
2023-05-21T06:52:39.218Z,56.79
2023-05-21T06:55:07.249Z,56.01
2023-05-21T06:57:53.121Z,55.85
2023-05-21T07:00:20.154Z,55.60
2023-05-21T07:02:47.308Z,55.37
2023-05-21T07:05:14.614Z,54.94
2023-05-21T07:07:41.780Z,54.48
2023-05-21T07:10:09.748Z,54.54
2023-05-21T07:12:36.837Z,53.84
2023-05-21T07:15:04.066Z,53.13
2023-05-21T07:17:31.056Z,52.96
2023-05-21T07:19:58.133Z,52.79
2023-05-21T07:22:26.692Z,52.84
2023-05-21T07:24:55.282Z,52.39
2023-05-21T07:27:25.770Z,51.85
2023-05-21T07:29:54.576Z,51.34
2023-05-21T07:32:21.878Z,51.26
2023-05-21T07:34:49.117Z,51.28
2023-05-21T07:37:16.298Z,51.34
2023-05-21T07:39:43.292Z,51.04
2023-05-21T07:42:11.249Z,50.97
2023-05-21T07:44:48.694Z,50.26
2023-05-21T07:47:16.065Z,49.76
2023-05-21T07:49:43.154Z,50.12
2023-05-21T07:52:10.694Z,50.22
2023-05-21T07:54:37.723Z,49.84
2023-05-21T07:57:05.709Z,50.09
2023-05-21T07:59:55.238Z,49.93
2023-05-21T08:02:22.262Z,49.98
2023-05-21T08:04:49.358Z,50.43
2023-05-21T08:07:20.022Z,50.36
2023-05-21T08:09:47.460Z,50.03
2023-05-21T08:12:18.908Z,49.23
2023-05-21T08:14:46.216Z,49.33
2023-05-21T08:17:13.934Z,49.44
2023-05-21T08:19:42.208Z,49.49
2023-05-21T08:22:10.287Z,49.05
2023-05-21T08:24:38.283Z,48.66
2023-05-21T08:27:05.692Z,48.85
2023-05-21T08:29:36.312Z,48.23
2023-05-21T08:32:04.141Z,48.35
2023-05-21T08:34:32.071Z,48.15
2023-05-21T08:37:19.184Z,47.74
2023-05-21T08:40:07.029Z,47.25
2023-05-21T08:42:45.726Z,47.37
2023-05-21T08:45:23.478Z,47.35
2023-05-21T08:47:56.176Z,46.99
2023-05-21T08:50:26.461Z,46.80
2023-05-21T08:52:55.515Z,46.79
2023-05-21T08:55:23.788Z,46.80
2023-05-21T08:57:50.965Z,46.69
2023-05-21T09:00:18.295Z,46.00
2023-05-21T09:02:46.732Z,45.15
2023-05-21T09:05:15.145Z,44.19
2023-05-21T09:07:56.007Z,43.97
2023-05-21T09:10:42.836Z,43.54
2023-05-21T09:13:10.065Z,42.63
2023-05-21T09:15:37.843Z,41.64
2023-05-21T09:18:09.793Z,41.35
2023-05-21T09:20:47.029Z,41.30
2023-05-21T09:23:17.273Z,41.12
2023-05-21T09:25:50.049Z,40.03
2023-05-21T09:28:22.993Z,39.71
2023-05-21T09:30:55.152Z,39.47
2023-05-21T09:33:27.260Z,39.19
2023-05-21T09:35:55.636Z,38.75
2023-05-21T09:38:23.997Z,38.74
2023-05-21T09:46:28.986Z,41.25
2023-05-21T09:48:57.723Z,40.17
2023-05-21T09:51:28.295Z,39.05
2023-05-21T09:57:25.877Z,40.31
2023-05-21T09:59:52.902Z,40.80
2023-05-21T10:02:21.539Z,40.73
2023-05-21T10:04:50.294Z,40.25
2023-05-21T10:07:18.921Z,39.83
2023-05-21T10:09:47.840Z,39.38
2023-05-21T10:12:16.892Z,38.77
2023-05-21T10:14:43.950Z,37.67
2023-05-21T10:17:10.973Z,38.03
2023-05-21T10:19:40.765Z,38.03
2023-05-21T10:22:07.915Z,37.91
2023-05-21T10:24:34.807Z,37.59
2023-05-21T10:27:02.047Z,37.32
2023-05-21T10:29:29.149Z,36.62
2023-05-21T10:31:56.648Z,36.54
2023-05-21T10:34:25.181Z,36.29
2023-05-21T10:36:57.470Z,36.30
2023-05-21T10:39:25.485Z,36.00
2023-05-21T10:42:17.539Z,36.04
2023-05-21T10:45:04.943Z,35.56
2023-05-21T10:47:56.960Z,35.63
2023-05-21T10:50:46.050Z,35.29
2023-05-21T10:53:28.853Z,35.25
2023-05-21T10:56:24.214Z,34.96
2023-05-21T10:59:07.588Z,34.48
2023-05-21T11:01:36.697Z,34.02
2023-05-21T11:04:06.813Z,33.95
2023-05-21T11:06:33.957Z,33.15
2023-05-21T11:09:20.212Z,33.10
2023-05-21T11:11:50.932Z,33.04
2023-05-21T11:14:44.075Z,32.91
2023-05-21T11:17:16.372Z,32.52
2023-05-21T11:19:47.410Z,32.74
2023-05-21T11:22:22.554Z,32.31
2023-05-21T11:24:51.347Z,32.28
2023-05-21T11:27:31.489Z,32.26
2023-05-21T11:29:58.943Z,32.33
2023-05-21T11:32:26.103Z,32.31
2023-05-21T11:34:53.128Z,32.70
2023-05-21T11:37:30.836Z,32.63
2023-05-21T11:39:58.846Z,32.45
2023-05-21T11:42:38.847Z,32.26
2023-05-21T11:45:06.229Z,32.57
2023-05-21T11:47:35.810Z,33.25
2023-05-21T11:50:03.952Z,33.54
2023-05-21T11:52:31.920Z,33.13
2023-05-21T11:55:00.121Z,32.93
2023-05-21T11:57:30.971Z,33.19
2023-05-21T11:59:59.260Z,32.74
2023-05-21T12:02:28.666Z,32.60
2023-05-21T12:05:00.473Z,32.50
2023-05-21T12:07:31.505Z,32.50
2023-05-21T12:09:58.686Z,32.62
2023-05-21T12:14:55.483Z,32.69
2023-05-21T12:17:23.777Z,32.97
2023-05-21T12:19:54.979Z,33.32
2023-05-21T12:22:24.616Z,33.66
2023-05-21T12:24:54.283Z,33.65
2023-05-21T12:27:21.776Z,33.56
2023-05-21T12:29:52.049Z,32.95
2023-05-21T12:32:19.934Z,32.78
2023-05-21T12:34:51.442Z,32.88
2023-05-21T12:37:34.122Z,33.24
2023-05-21T12:40:08.323Z,33.94
2023-05-21T12:42:35.524Z,33.82
2023-05-21T12:45:09.284Z,33.96
2023-05-21T12:47:36.354Z,34.10
2023-05-21T12:50:12.052Z,34.04
2023-05-21T12:52:40.553Z,34.50
2023-05-21T12:55:09.619Z,34.44
2023-05-21T12:57:39.014Z,34.17
2023-05-21T13:00:11.556Z,33.92
2023-05-21T13:02:40.584Z,34.13
2023-05-21T13:05:09.008Z,34.29
2023-05-21T13:07:38.242Z,34.07
2023-05-21T13:10:05.916Z,34.29
2023-05-21T13:12:33.702Z,34.23
2023-05-21T13:15:02.022Z,34.06
2023-05-21T13:17:29.286Z,33.72
2023-05-21T13:20:29.495Z,33.27
2023-05-21T13:22:56.692Z,33.25
2023-05-21T13:25:28.941Z,33.12
2023-05-21T13:27:56.453Z,33.35
2023-05-21T13:30:23.599Z,33.34
2023-05-21T13:32:50.850Z,33.48
2023-05-21T13:35:17.949Z,33.67
2023-05-21T13:37:45.346Z,34.12
2023-05-21T13:40:16.708Z,34.44
2023-05-21T13:42:48.321Z,34.58
2023-05-21T13:45:17.511Z,34.60
2023-05-21T13:47:46.296Z,34.62
2023-05-21T13:50:13.687Z,34.50
2023-05-21T13:52:40.850Z,34.59
2023-05-21T13:55:08.500Z,34.40
2023-05-21T13:57:35.753Z,34.24
2023-05-21T14:00:03.350Z,34.58
2023-05-21T14:02:35.246Z,34.62
2023-05-21T14:05:02.645Z,34.38
2023-05-21T14:07:29.687Z,34.25
2023-05-21T14:09:56.894Z,34.16
2023-05-21T14:12:23.993Z,34.36
2023-05-21T14:14:51.907Z,34.51
2023-05-21T14:17:18.936Z,34.71
2023-05-21T14:19:46.089Z,34.81
2023-05-21T14:22:13.332Z,34.86
2023-05-21T14:24:40.281Z,34.98
2023-05-21T14:27:07.280Z,35.04
2023-05-21T14:29:34.410Z,35.09
2023-05-21T14:32:01.458Z,35.38
2023-05-21T14:34:28.501Z,35.39
2023-05-21T14:36:55.672Z,34.89
2023-05-21T14:39:22.776Z,34.72
2023-05-21T14:41:51.664Z,34.50
2023-05-21T14:44:18.787Z,33.98
2023-05-21T14:46:45.967Z,33.48
2023-05-21T14:49:14.675Z,33.80
2023-05-21T14:51:42.854Z,33.76
2023-05-21T14:54:09.797Z,33.77
2023-05-21T14:56:36.840Z,33.92
2023-05-21T14:59:03.872Z,33.92
2023-05-21T15:01:31.112Z,33.49
2023-05-21T15:03:58.835Z,33.33
2023-05-21T15:06:26.006Z,33.46
2023-05-21T15:08:53.270Z,33.53
2023-05-21T15:11:22.303Z,33.71
2023-05-21T15:13:49.467Z,34.08
2023-05-21T15:16:18.735Z,34.22
2023-05-21T15:18:46.920Z,34.43
2023-05-21T15:21:14.013Z,34.61
2023-05-21T15:23:41.134Z,34.85
2023-05-21T15:26:09.344Z,34.89
2023-05-21T15:28:36.450Z,34.87
2023-05-21T15:31:03.402Z,34.85
2023-05-21T15:33:30.426Z,34.93
2023-05-21T15:35:57.455Z,35.23
2023-05-21T15:38:24.539Z,35.62
2023-05-21T15:40:52.296Z,36.04
2023-05-21T15:43:19.425Z,36.49
2023-05-21T15:45:46.467Z,36.64
2023-05-21T15:48:13.939Z,36.69
2023-05-21T15:50:40.939Z,36.74
2023-05-21T15:53:08.028Z,36.87
2023-05-21T15:55:35.245Z,36.81
2023-05-21T15:58:03.779Z,37.08
2023-05-21T16:00:30.986Z,37.30
2023-05-21T16:02:58.308Z,37.20
2023-05-21T16:05:26.373Z,37.33
2023-05-21T16:07:53.404Z,37.55
2023-05-21T16:10:21.617Z,37.49
2023-05-21T16:12:48.587Z,37.54
2023-05-21T16:15:15.815Z,37.68
2023-05-21T16:17:44.681Z,37.65
2023-05-21T16:20:12.319Z,37.53
2023-05-21T16:22:40.479Z,37.32
2023-05-21T16:25:08.078Z,37.46
2023-05-21T16:27:35.724Z,37.10
2023-05-21T16:30:03.245Z,37.13
2023-05-21T16:32:30.513Z,37.16
2023-05-21T16:34:57.715Z,37.15
2023-05-21T16:37:24.677Z,37.13
2023-05-21T16:39:51.708Z,37.26
2023-05-21T16:42:18.637Z,37.45
2023-05-21T16:44:45.855Z,37.92
2023-05-21T16:47:12.982Z,38.26
2023-05-21T16:49:40.072Z,38.36
2023-05-21T16:52:07.214Z,38.66
2023-05-21T16:54:34.340Z,38.92
2023-05-21T16:57:01.492Z,39.57
2023-05-21T16:59:29.021Z,40.24
2023-05-21T17:01:56.290Z,40.96
2023-05-21T17:04:23.762Z,41.50
2023-05-21T17:06:51.053Z,42.15
2023-05-21T17:09:18.892Z,43.69
2023-05-21T17:11:46.213Z,45.86
2023-05-21T17:14:20.295Z,47.32
2023-05-21T17:16:54.689Z,48.63
2023-05-21T17:19:22.068Z,49.38
2023-05-21T17:21:49.082Z,49.73
2023-05-21T17:24:16.071Z,49.97
2023-05-21T17:26:43.080Z,50.45
2023-05-21T17:29:10.108Z,50.83
2023-05-21T17:31:37.253Z,51.27
2023-05-21T17:34:04.377Z,51.58
2023-05-21T17:36:32.350Z,52.12
2023-05-21T17:38:59.638Z,52.38
2023-05-21T17:41:26.565Z,52.41
2023-05-21T17:43:53.678Z,52.15
2023-05-21T17:46:20.709Z,51.80
2023-05-21T17:48:47.809Z,51.48
2023-05-21T17:51:15.057Z,51.30
2023-05-21T17:53:42.046Z,50.62
2023-05-21T17:56:11.459Z,50.44
2023-05-21T17:58:38.463Z,50.28
2023-05-21T18:01:05.751Z,50.42
2023-05-21T18:03:32.834Z,50.40
2023-05-21T18:06:02.370Z,50.55
2023-05-21T18:08:30.187Z,51.03
2023-05-21T18:10:58.202Z,51.13
2023-05-21T18:13:25.367Z,51.29
2023-05-21T18:15:59.044Z,51.38
2023-05-21T18:18:26.138Z,51.70
2023-05-21T18:20:53.182Z,51.91
2023-05-21T18:23:21.003Z,52.19
2023-05-21T18:25:48.053Z,52.36
2023-05-21T18:28:15.030Z,52.55
2023-05-21T18:30:42.096Z,52.68
2023-05-21T18:33:09.424Z,52.81
2023-05-21T18:35:36.446Z,53.05
2023-05-21T18:38:04.377Z,53.34
2023-05-21T18:40:33.351Z,53.60
2023-05-21T18:43:00.963Z,53.75
2023-05-21T18:45:28.152Z,53.96
2023-05-21T18:47:55.458Z,53.98
2023-05-21T18:50:22.541Z,54.09
2023-05-21T18:52:53.847Z,54.27
2023-05-21T18:55:21.191Z,54.42
2023-05-21T18:57:48.229Z,54.56
2023-05-21T19:00:15.563Z,54.82
2023-05-21T19:02:43.835Z,55.21
2023-05-21T19:05:11.840Z,55.61
2023-05-21T19:07:41.301Z,55.86
2023-05-21T19:10:08.807Z,55.79
2023-05-21T19:12:36.433Z,55.75
2023-05-21T19:15:04.103Z,55.77
2023-05-21T19:17:31.821Z,55.92
2023-05-21T19:19:58.989Z,56.10
2023-05-21T19:22:26.383Z,56.33
2023-05-21T19:24:53.696Z,56.43
2023-05-21T19:27:20.959Z,56.57
2023-05-21T19:29:48.219Z,56.77
2023-05-21T19:32:16.319Z,56.87
2023-05-21T19:34:43.603Z,56.67
2023-05-21T19:37:10.681Z,56.80
2023-05-21T19:39:41.902Z,57.07
2023-05-21T19:42:09.538Z,57.55
2023-05-21T19:44:41.255Z,58.02
2023-05-21T19:47:11.415Z,58.38
2023-05-21T19:49:38.651Z,58.82
2023-05-21T19:52:05.911Z,58.87
2023-05-21T19:54:32.908Z,59.38
2023-05-21T19:56:59.913Z,59.86
2023-05-21T19:59:26.971Z,60.05
2023-05-21T20:01:55.568Z,60.56
2023-05-21T20:04:22.618Z,60.83
2023-05-21T20:06:49.644Z,60.88
2023-05-21T20:09:18.413Z,61.05
2023-05-21T20:11:45.488Z,61.60
2023-05-21T20:14:13.722Z,61.93
2023-05-21T20:16:42.530Z,62.39
2023-05-21T20:19:10.961Z,62.83
2023-05-21T20:21:38.166Z,63.10
2023-05-21T20:24:05.560Z,63.32
2023-05-21T20:26:35.105Z,63.69
2023-05-21T20:29:02.128Z,63.95
2023-05-21T20:31:29.476Z,64.12
2023-05-21T20:33:56.666Z,64.15
2023-05-21T20:36:24.021Z,64.26
2023-05-21T20:38:51.172Z,64.55
2023-05-21T20:41:18.144Z,64.72
2023-05-21T20:43:46.182Z,64.92
2023-05-21T20:46:13.732Z,65.35
2023-05-21T20:48:41.990Z,65.51
2023-05-21T20:51:09.214Z,65.65
2023-05-21T20:53:37.041Z,65.78
2023-05-21T20:56:08.483Z,65.88
2023-05-21T20:58:35.595Z,66.06
2023-05-21T21:01:02.599Z,66.13
2023-05-21T21:03:30.595Z,66.03
2023-05-21T21:05:58.336Z,65.96
2023-05-21T21:08:25.353Z,65.75
2023-05-21T21:10:52.470Z,65.71
2023-05-21T21:13:19.448Z,65.66
2023-05-21T21:15:46.392Z,65.52
2023-05-21T21:18:13.404Z,65.42
2023-05-21T21:20:42.833Z,65.46
2023-05-21T21:23:09.781Z,65.54
2023-05-21T21:25:36.863Z,65.28
2023-05-21T21:28:04.009Z,65.07
2023-05-21T21:30:31.205Z,65.04
2023-05-21T21:32:58.493Z,64.82
2023-05-21T21:35:25.575Z,64.67
2023-05-21T21:37:52.667Z,64.59
2023-05-21T21:40:19.654Z,64.32
2023-05-21T21:42:46.613Z,64.17
2023-05-21T21:45:13.648Z,64.13
2023-05-21T21:47:41.259Z,64.26
2023-05-21T21:50:08.624Z,64.35
2023-05-21T21:52:40.184Z,64.69
2023-05-21T21:55:09.471Z,65.08
2023-05-21T21:57:37.001Z,65.70
2023-05-21T22:00:13.443Z,66.06
2023-05-21T22:02:40.629Z,66.41
2023-05-21T22:05:08.904Z,66.34
2023-05-21T22:07:38.885Z,66.51
2023-05-21T22:10:06.681Z,66.91
2023-05-21T22:12:34.213Z,67.35
2023-05-21T22:15:05.867Z,67.71
2023-05-21T22:17:33.065Z,68.13
2023-05-21T22:20:01.193Z,68.72
2023-05-21T22:22:28.276Z,69.31
2023-05-21T22:24:55.248Z,69.80
2023-05-21T22:27:22.318Z,70.34
2023-05-21T22:29:49.299Z,70.95
2023-05-21T22:32:16.354Z,71.06
2023-05-21T22:34:43.543Z,71.19
2023-05-21T22:37:11.333Z,71.46
2023-05-21T22:39:38.269Z,71.35
2023-05-21T22:42:05.593Z,71.36
2023-05-21T22:44:32.573Z,71.32
2023-05-21T22:47:00.478Z,71.52
2023-05-21T22:49:27.560Z,72.15
2023-05-21T22:51:56.681Z,72.46
2023-05-21T22:54:23.826Z,72.59
2023-05-21T22:56:51.102Z,72.42
2023-05-21T22:59:18.103Z,72.60
2023-05-21T23:01:45.258Z,72.19
2023-05-21T23:04:12.259Z,71.95
2023-05-21T23:06:39.256Z,71.52
2023-05-21T23:09:06.345Z,71.43
2023-05-21T23:11:33.354Z,71.62
2023-05-21T23:14:00.259Z,71.63
2023-05-21T23:16:27.239Z,71.83
2023-05-21T23:18:54.494Z,71.98
2023-05-21T23:21:22.061Z,72.28
2023-05-21T23:23:49.094Z,72.18
2023-05-21T23:26:16.066Z,72.22
2023-05-21T23:28:43.036Z,72.37
2023-05-21T23:31:10.814Z,72.30
2023-05-21T23:33:38.466Z,72.36
2023-05-21T23:36:05.971Z,72.30
2023-05-21T23:38:32.952Z,72.17
2023-05-21T23:40:59.865Z,72.05
2023-05-21T23:43:26.882Z,71.83
2023-05-21T23:45:53.929Z,71.91
2023-05-21T23:48:21.032Z,71.85
2023-05-21T23:50:48.119Z,72.04
2023-05-21T23:53:15.131Z,72.25
2023-05-21T23:55:42.146Z,72.32
2023-05-21T23:58:09.112Z,72.36
